createdAt,value
2018-05-04T00:00:16.704Z,74.30
2018-05-04T00:02:46.517Z,76.50
2018-05-04T00:05:15.521Z,77.10
2018-05-04T00:07:43.789Z,77.10
2018-05-04T00:10:12.048Z,78.30
2018-05-04T00:12:40.265Z,77.00
2018-05-04T00:15:08.527Z,77.00
2018-05-04T00:17:37.524Z,76.60
2018-05-04T00:20:06.544Z,76.60
2018-05-04T00:22:34.777Z,76.50
2018-05-04T00:25:03.024Z,78.40
2018-05-04T00:27:31.761Z,78.40
2018-05-04T00:30:00.107Z,76.70
2018-05-04T00:32:28.319Z,76.90
2018-05-04T00:34:56.602Z,77.70
2018-05-04T00:37:24.840Z,78.00
2018-05-04T00:39:53.082Z,77.00
2018-05-04T00:42:22.080Z,78.50
2018-05-04T00:44:51.115Z,79.10
2018-05-04T00:47:19.352Z,79.00
2018-05-04T00:49:47.623Z,79.30
2018-05-04T00:52:15.905Z,78.40
2018-05-04T00:54:44.168Z,79.20
2018-05-04T00:57:12.405Z,80.20
2018-05-04T00:59:41.144Z,79.40
2018-05-04T01:02:09.374Z,79.60
2018-05-04T01:04:37.703Z,80.10
2018-05-04T01:07:05.956Z,79.10
2018-05-04T01:09:34.188Z,78.20
2018-05-04T01:12:02.427Z,79.00
2018-05-04T01:14:30.675Z,80.50
2018-05-04T01:16:59.672Z,80.90
2018-05-04T01:19:28.688Z,80.50
2018-05-04T01:21:56.924Z,80.40
2018-05-04T01:24:25.219Z,80.50
2018-05-04T01:26:54.224Z,78.00
2018-05-04T01:29:23.291Z,78.50
2018-05-04T01:31:51.524Z,78.50
2018-05-04T01:34:19.774Z,79.20
2018-05-04T01:36:48.032Z,80.00
2018-05-04T01:39:16.335Z,79.40
2018-05-04T01:41:44.588Z,79.80
2018-05-04T01:44:12.858Z,79.40
2018-05-04T01:46:41.930Z,80.00
2018-05-04T01:49:10.169Z,80.20
2018-05-04T01:51:38.438Z,80.70
2018-05-04T01:54:06.655Z,80.90
2018-05-04T01:56:35.740Z,80.20
2018-05-04T01:59:03.968Z,80.20
2018-05-04T02:01:32.239Z,79.80
2018-05-04T02:04:00.472Z,81.40
2018-05-04T02:06:30.207Z,81.50
2018-05-04T02:08:59.219Z,81.90
2018-05-04T02:11:27.503Z,81.90
2018-05-04T02:13:56.506Z,83.60
2018-05-04T02:16:24.768Z,83.60
2018-05-04T02:18:52.991Z,82.70
2018-05-04T02:21:21.315Z,82.30
2018-05-04T02:23:49.538Z,84.60
2018-05-04T02:26:17.776Z,84.40
2018-05-04T02:28:46.760Z,84.20
2018-05-04T02:31:15.009Z,84.30
2018-05-04T02:33:43.287Z,85.10
2018-05-04T02:36:11.563Z,85.00
2018-05-04T02:38:39.853Z,84.90
2018-05-04T02:41:08.121Z,85.00
2018-05-04T02:43:36.476Z,85.70
2018-05-04T02:46:04.708Z,85.80
2018-05-04T02:48:32.933Z,87.00
2018-05-04T02:51:01.954Z,87.30
2018-05-04T02:53:30.215Z,86.50
2018-05-04T02:55:59.252Z,83.50
2018-05-04T02:58:27.490Z,83.50
2018-05-04T03:00:57.112Z,83.90
2018-05-04T03:03:27.417Z,83.60
2018-05-04T03:05:55.679Z,83.80
2018-05-04T03:08:24.677Z,85.30
2018-05-04T03:10:52.945Z,84.50
2018-05-04T03:13:22.172Z,84.70
2018-05-04T03:15:50.407Z,84.20
2018-05-04T03:18:18.659Z,84.50
2018-05-04T03:20:46.898Z,84.60
2018-05-04T03:23:15.134Z,85.20
2018-05-04T03:25:44.159Z,84.50
2018-05-04T03:28:12.383Z,84.60
2018-05-04T03:30:40.618Z,84.10
2018-05-04T03:33:08.872Z,84.40
2018-05-04T03:35:37.117Z,84.90
2018-05-04T03:38:05.371Z,84.20
2018-05-04T03:40:33.609Z,84.90
2018-05-04T03:43:03.111Z,86.00
2018-05-04T03:45:32.231Z,86.60
2018-05-04T03:48:01.233Z,86.90
2018-05-04T03:50:29.478Z,86.90
2018-05-04T03:52:57.715Z,88.00
2018-05-04T03:55:25.945Z,88.20
2018-05-04T03:58:06.187Z,88.30
2018-05-04T04:00:46.333Z,88.30
2018-05-04T04:03:26.368Z,88.70
2018-05-04T04:05:54.618Z,89.20
2018-05-04T04:08:22.892Z,89.10
2018-05-04T04:10:51.864Z,88.60
2018-05-04T04:13:21.016Z,89.40
2018-05-04T04:15:49.241Z,89.50
2018-05-04T04:18:17.468Z,89.70
2018-05-04T04:20:45.722Z,89.60
2018-05-04T04:23:14.718Z,90.00
2018-05-04T04:25:43.722Z,89.60
2018-05-04T04:28:12.795Z,91.10
2018-05-04T04:30:41.914Z,91.10
2018-05-04T04:33:10.155Z,90.70
2018-05-04T04:35:38.382Z,90.10
2018-05-04T04:38:07.387Z,90.00
2018-05-04T04:40:36.373Z,89.90
2018-05-04T04:43:05.393Z,90.20
2018-05-04T04:45:33.684Z,90.20
2018-05-04T04:48:02.847Z,89.30
2018-05-04T04:50:31.847Z,88.50
2018-05-04T04:53:00.970Z,88.70
2018-05-04T04:55:29.965Z,89.40
2018-05-04T04:57:58.314Z,89.40
2018-05-04T05:00:26.572Z,88.90
2018-05-04T05:02:54.879Z,89.80
2018-05-04T05:05:23.111Z,89.20
2018-05-04T05:07:51.363Z,89.20
2018-05-04T05:10:20.373Z,87.60
2018-05-04T05:12:49.080Z,87.60
2018-05-04T05:15:17.780Z,87.80
2018-05-04T05:17:46.574Z,87.40
2018-05-04T05:20:15.317Z,87.00
2018-05-04T05:22:44.944Z,86.60
2018-05-04T05:25:13.239Z,86.50
2018-05-04T05:27:41.501Z,85.70
2018-05-04T05:30:11.411Z,86.20
2018-05-04T05:32:40.447Z,85.10
2018-05-04T05:35:08.701Z,85.00
2018-05-04T05:37:36.977Z,85.40
2018-05-04T05:40:06.021Z,83.80
2018-05-04T05:42:34.288Z,83.00
2018-05-04T05:45:02.578Z,81.70
2018-05-04T05:47:30.804Z,81.30
2018-05-04T05:49:59.524Z,80.00
2018-05-04T05:52:27.764Z,80.10
2018-05-04T05:54:56.161Z,78.40
2018-05-04T05:57:24.401Z,78.20
2018-05-04T05:59:52.670Z,77.50
2018-05-04T06:02:20.932Z,77.10
2018-05-04T06:04:49.200Z,77.20
2018-05-04T06:07:18.225Z,74.90
2018-05-04T06:09:46.525Z,74.80
2018-05-04T06:12:14.806Z,73.20
2018-05-04T06:14:43.165Z,71.70
2018-05-04T06:17:12.165Z,70.40
2018-05-04T06:19:41.136Z,70.30
2018-05-04T06:22:10.156Z,70.10
2018-05-04T06:24:39.186Z,69.40
2018-05-04T06:27:07.437Z,69.30
2018-05-04T06:29:36.232Z,68.50
2018-05-04T06:32:04.514Z,68.00
2018-05-04T06:34:33.532Z,64.70
2018-05-04T06:37:02.440Z,64.80
2018-05-04T06:39:30.715Z,66.30
2018-05-04T06:41:58.986Z,62.90
2018-05-04T06:44:28.073Z,64.40
2018-05-04T06:46:56.326Z,64.40
2018-05-04T06:49:25.351Z,61.40
2018-05-04T06:51:53.615Z,61.40
2018-05-04T06:54:21.897Z,60.20
2018-05-04T06:56:50.911Z,59.10
2018-05-04T06:59:20.500Z,57.60
2018-05-04T07:01:50.120Z,57.20
2018-05-04T07:04:19.142Z,56.90
2018-05-04T07:06:47.383Z,56.90
2018-05-04T07:09:16.435Z,56.00
2018-05-04T07:11:45.579Z,56.00
2018-05-04T07:14:13.856Z,56.40
2018-05-04T07:16:42.440Z,56.80
2018-05-04T07:19:10.709Z,55.20
2018-05-04T07:21:38.964Z,54.10
2018-05-04T07:24:07.233Z,53.60
2018-05-04T07:26:35.479Z,52.20
2018-05-04T07:29:04.562Z,51.60
2018-05-04T07:31:33.428Z,51.50
2018-05-04T07:34:01.749Z,52.40
2018-05-04T07:36:30.477Z,50.60
2018-05-04T07:38:58.769Z,47.20
2018-05-04T07:41:27.040Z,47.20
2018-05-04T07:43:56.168Z,48.60
2018-05-04T07:46:24.419Z,48.60
2018-05-04T07:48:52.669Z,48.30
2018-05-04T07:51:20.920Z,47.10
2018-05-04T07:53:49.975Z,46.80
2018-05-04T07:56:30.056Z,46.80
2018-05-04T07:58:58.323Z,46.30
2018-05-04T08:01:26.581Z,45.10
2018-05-04T08:03:55.580Z,45.80
2018-05-04T08:06:24.595Z,44.60
2018-05-04T08:08:52.836Z,44.50
2018-05-04T08:11:21.091Z,43.00
2018-05-04T08:13:50.079Z,41.40
2018-05-04T08:16:18.337Z,40.80
2018-05-04T08:18:46.591Z,41.10
2018-05-04T08:21:15.632Z,40.40
2018-05-04T08:23:43.972Z,40.20
2018-05-04T08:26:12.258Z,38.30
2018-05-04T08:28:42.022Z,36.60
2018-05-04T08:31:10.272Z,36.60
2018-05-04T08:33:38.527Z,36.50
2018-05-04T08:36:11.883Z,36.00
2018-05-04T08:38:40.107Z,39.10
2018-05-04T08:41:09.126Z,36.90
2018-05-04T08:43:37.365Z,36.90
2018-05-04T08:46:05.640Z,36.70
2018-05-04T08:48:33.937Z,36.60
2018-05-04T08:51:02.275Z,35.70
2018-05-04T08:53:30.428Z,35.50
2018-05-04T08:55:58.685Z,35.50
2018-05-04T08:58:26.963Z,34.60
2018-05-04T09:00:55.227Z,33.90
2018-05-04T09:03:23.465Z,33.50
2018-05-04T09:05:51.712Z,34.20
2018-05-04T09:08:19.968Z,32.10
2018-05-04T09:10:48.249Z,31.50
2018-05-04T09:13:16.481Z,32.20
2018-05-04T09:15:44.747Z,32.90
2018-05-04T09:18:13.763Z,30.50
2018-05-04T09:20:42.792Z,32.90
2018-05-04T09:23:11.736Z,32.80
2018-05-04T09:25:40.917Z,30.70
2018-05-04T09:28:09.256Z,30.90
2018-05-04T09:30:37.531Z,30.00
2018-05-04T09:33:06.502Z,29.40
2018-05-04T09:35:35.516Z,28.50
2018-05-04T09:38:03.785Z,28.40
2018-05-04T09:40:32.816Z,29.10
2018-05-04T09:43:01.065Z,29.10
2018-05-04T09:45:30.092Z,29.10
2018-05-04T09:47:58.337Z,29.10
2018-05-04T09:50:27.360Z,30.70
2018-05-04T09:52:55.608Z,30.60
2018-05-04T09:55:23.836Z,29.60
2018-05-04T09:57:52.105Z,29.30
2018-05-04T10:00:20.351Z,28.20
2018-05-04T10:02:48.609Z,28.10
2018-05-04T10:05:17.640Z,27.00
2018-05-04T10:07:46.661Z,27.50
2018-05-04T10:10:14.898Z,27.50
2018-05-04T10:12:43.132Z,27.00
2018-05-04T10:15:11.387Z,28.10
2018-05-04T10:17:39.659Z,28.20
2018-05-04T10:20:08.149Z,28.20
2018-05-04T10:22:36.399Z,27.20
2018-05-04T10:25:04.671Z,28.00
2018-05-04T10:27:32.918Z,27.00
2018-05-04T10:30:01.160Z,26.90
2018-05-04T10:32:29.413Z,27.30
2018-05-04T10:34:57.660Z,27.20
2018-05-04T10:37:25.920Z,27.50
2018-05-04T10:39:54.152Z,27.60
2018-05-04T10:42:22.399Z,26.10
2018-05-04T10:44:50.655Z,25.90
2018-05-04T10:47:19.673Z,25.50
2018-05-04T10:49:47.929Z,25.70
2018-05-04T10:52:16.191Z,25.30
2018-05-04T10:54:44.440Z,25.90
2018-05-04T10:57:12.766Z,26.60
2018-05-04T10:59:40.948Z,25.80
2018-05-04T11:02:09.204Z,26.20
2018-05-04T11:04:37.453Z,25.40
2018-05-04T11:07:05.713Z,25.40
2018-05-04T11:09:34.731Z,25.80
2018-05-04T11:12:03.037Z,25.70
2018-05-04T11:14:32.003Z,25.30
2018-05-04T11:17:00.267Z,25.20
2018-05-04T11:19:28.561Z,25.20
2018-05-04T11:21:56.741Z,24.00
2018-05-04T11:24:25.736Z,24.80
2018-05-04T11:26:54.752Z,24.80
2018-05-04T11:29:22.979Z,25.40
2018-05-04T11:31:52.031Z,24.60
2018-05-04T11:34:21.021Z,24.60
2018-05-04T11:36:49.264Z,24.10
2018-05-04T11:39:17.508Z,24.40
2018-05-04T11:41:45.821Z,23.30
2018-05-04T11:44:14.073Z,24.40
2018-05-04T11:46:42.386Z,23.90
2018-05-04T11:49:10.623Z,24.30
2018-05-04T11:51:38.860Z,24.50
2018-05-04T11:54:07.226Z,24.50
2018-05-04T11:56:35.465Z,24.30
2018-05-04T11:59:03.714Z,23.30
2018-05-04T12:01:32.700Z,24.10
2018-05-04T12:04:03.531Z,24.00
2018-05-04T12:06:31.676Z,22.60
2018-05-04T12:08:59.931Z,24.70
2018-05-04T12:11:28.157Z,24.50
2018-05-04T12:13:56.398Z,23.90
2018-05-04T12:16:24.624Z,25.20
2018-05-04T12:18:53.804Z,25.90
2018-05-04T12:21:22.149Z,25.00
2018-05-04T12:23:50.388Z,24.50
2018-05-04T12:26:19.088Z,24.40
2018-05-04T12:28:47.335Z,25.10
2018-05-04T12:31:15.573Z,25.10
2018-05-04T12:33:44.595Z,24.70
2018-05-04T12:36:12.886Z,24.70
2018-05-04T12:38:41.134Z,25.10
2018-05-04T12:41:10.140Z,23.80
2018-05-04T12:43:39.152Z,24.30
2018-05-04T12:46:07.400Z,24.30
2018-05-04T12:48:36.420Z,23.90
2018-05-04T12:51:04.676Z,23.90
2018-05-04T12:53:32.959Z,24.60
2018-05-04T12:56:01.985Z,25.10
2018-05-04T12:58:30.254Z,25.50
2018-05-04T13:00:59.272Z,25.30
2018-05-04T13:03:27.541Z,25.30
2018-05-04T13:05:56.537Z,25.10
2018-05-04T13:08:25.548Z,26.30
2018-05-04T13:10:53.794Z,26.30
2018-05-04T13:13:22.103Z,26.10
2018-05-04T13:15:50.320Z,26.20
2018-05-04T13:18:19.253Z,24.80
2018-05-04T13:20:47.502Z,24.90
2018-05-04T13:23:15.752Z,25.40
2018-05-04T13:25:44.753Z,24.90
2018-05-04T13:28:12.976Z,24.90
2018-05-04T13:30:41.248Z,25.20
2018-05-04T13:33:09.960Z,25.10
2018-05-04T13:35:38.912Z,24.40
2018-05-04T13:38:07.748Z,24.40
2018-05-04T13:40:36.021Z,24.80
2018-05-04T13:43:04.856Z,25.00
2018-05-04T13:45:33.122Z,25.40
2018-05-04T13:48:01.352Z,26.20
2018-05-04T13:50:29.612Z,26.00
2018-05-04T13:52:57.864Z,26.00
2018-05-04T13:55:27.020Z,26.50
2018-05-04T13:57:56.720Z,26.50
2018-05-04T14:00:24.996Z,26.30
2018-05-04T14:02:53.232Z,26.50
2018-05-04T14:05:21.511Z,26.50
2018-05-04T14:07:49.811Z,26.80
2018-05-04T14:10:18.840Z,26.80
2018-05-04T14:12:47.172Z,26.80
2018-05-04T14:15:15.361Z,27.20
2018-05-04T14:17:44.352Z,26.60
2018-05-04T14:20:12.691Z,26.60
2018-05-04T14:22:41.428Z,26.70
2018-05-04T14:25:09.702Z,27.00
2018-05-04T14:27:38.001Z,27.50
2018-05-04T14:30:06.245Z,27.50
2018-05-04T14:32:34.471Z,27.50
2018-05-04T14:35:03.551Z,27.50
2018-05-04T14:37:31.778Z,27.50
2018-05-04T14:40:00.024Z,27.70
2018-05-04T14:42:29.028Z,27.60
2018-05-04T14:44:58.103Z,28.10
2018-05-04T14:47:26.336Z,28.10
2018-05-04T14:49:54.626Z,27.50
2018-05-04T14:52:22.937Z,27.70
2018-05-04T14:54:51.181Z,28.40
2018-05-04T14:57:19.444Z,28.70
2018-05-04T14:59:48.456Z,28.70
2018-05-04T15:02:16.683Z,28.70
2018-05-04T15:04:45.664Z,28.30
2018-05-04T15:07:14.416Z,28.70
2018-05-04T15:09:42.668Z,28.80
2018-05-04T15:12:12.621Z,28.90
2018-05-04T15:14:41.566Z,29.00
2018-05-04T15:17:09.901Z,29.10
2018-05-04T15:19:38.127Z,29.30
2018-05-04T15:22:06.397Z,29.60
2018-05-04T15:24:34.685Z,30.00
2018-05-04T15:27:02.936Z,29.90
2018-05-04T15:29:31.195Z,30.40
2018-05-04T15:32:00.189Z,31.40
2018-05-04T15:34:29.205Z,31.60
2018-05-04T15:36:58.061Z,31.60
2018-05-04T15:39:26.301Z,31.50
2018-05-04T15:41:54.569Z,32.30
2018-05-04T15:44:22.827Z,32.80
2018-05-04T15:46:51.065Z,33.20
2018-05-04T15:49:19.784Z,32.70
2018-05-04T15:51:54.228Z,33.60
2018-05-04T15:54:23.274Z,33.90
2018-05-04T15:56:52.434Z,33.60
2018-05-04T15:59:20.687Z,33.60
2018-05-04T16:01:49.595Z,34.10
2018-05-04T16:04:17.823Z,35.10
2018-05-04T16:06:46.085Z,35.20
2018-05-04T16:09:14.349Z,35.50
2018-05-04T16:11:43.356Z,35.30
2018-05-04T16:14:11.612Z,35.30
2018-05-04T16:16:40.632Z,36.00
2018-05-04T16:19:09.634Z,36.00
2018-05-04T16:21:37.864Z,36.00
2018-05-04T16:24:06.114Z,36.40
2018-05-04T16:26:34.342Z,36.20
2018-05-04T16:29:03.353Z,37.00
2018-05-04T16:31:32.364Z,37.30
2018-05-04T16:34:02.140Z,37.30
2018-05-04T16:36:30.395Z,37.80
2018-05-04T16:38:58.625Z,37.20
2018-05-04T16:41:27.669Z,38.10
2018-05-04T16:43:55.933Z,38.10
2018-05-04T16:46:29.860Z,38.80
2018-05-04T16:49:03.888Z,38.70
2018-05-04T16:51:32.133Z,38.70
2018-05-04T16:54:00.450Z,38.80
2018-05-04T16:56:28.700Z,39.40
2018-05-04T16:58:56.923Z,39.40
2018-05-04T17:01:25.218Z,39.30
2018-05-04T17:03:53.695Z,39.70
2018-05-04T17:06:22.741Z,39.90
2018-05-04T17:08:50.984Z,39.90
2018-05-04T17:11:19.261Z,40.10
2018-05-04T17:13:47.528Z,40.50
2018-05-04T17:16:15.803Z,40.30
2018-05-04T17:18:44.830Z,40.40
2018-05-04T17:21:13.098Z,40.40
2018-05-04T17:23:41.344Z,40.60
2018-05-04T17:26:09.580Z,40.70
2018-05-04T17:28:37.838Z,41.20
2018-05-04T17:31:06.075Z,41.10
2018-05-04T17:33:34.324Z,41.30
2018-05-04T17:36:03.350Z,42.00
2018-05-04T17:38:31.657Z,41.90
2018-05-04T17:40:59.993Z,41.80
2018-05-04T17:43:29.510Z,42.10
2018-05-04T17:45:58.508Z,42.50
2018-05-04T17:48:27.543Z,42.40
2018-05-04T17:50:55.774Z,42.40
2018-05-04T17:53:24.787Z,43.00
2018-05-04T17:55:53.813Z,42.80
2018-05-04T17:58:22.079Z,42.70
2018-05-04T18:00:50.360Z,43.50
2018-05-04T18:03:18.688Z,43.70
2018-05-04T18:05:47.821Z,43.80
2018-05-04T18:08:16.837Z,44.20
2018-05-04T18:10:45.682Z,44.10
2018-05-04T18:13:14.711Z,44.50
2018-05-04T18:15:43.726Z,44.70
2018-05-04T18:18:13.560Z,44.90
2018-05-04T18:20:41.820Z,44.90
2018-05-04T18:23:10.843Z,45.30
2018-05-04T18:25:39.076Z,45.30
2018-05-04T18:28:07.339Z,45.90
2018-05-04T18:30:35.956Z,46.10
2018-05-04T18:33:05.052Z,45.90
2018-05-04T18:35:33.762Z,45.80
2018-05-04T18:38:02.789Z,45.70
2018-05-04T18:40:31.060Z,45.60
2018-05-04T18:42:59.303Z,45.40
2018-05-04T18:45:28.244Z,46.20
2018-05-04T18:47:56.559Z,46.20
2018-05-04T18:50:24.788Z,46.50
2018-05-04T18:52:53.814Z,47.30
2018-05-04T18:55:22.141Z,47.20
2018-05-04T18:57:50.633Z,47.70
2018-05-04T19:00:19.632Z,48.30
2018-05-04T19:02:54.383Z,48.90
2018-05-04T19:05:23.392Z,49.20
2018-05-04T19:07:51.728Z,49.10
2018-05-04T19:10:20.007Z,49.70
2018-05-04T19:12:48.249Z,49.70
2018-05-04T19:15:17.464Z,49.90
2018-05-04T19:17:45.711Z,50.40
2018-05-04T19:20:14.760Z,51.30
2018-05-04T19:22:43.039Z,51.30
2018-05-04T19:25:11.283Z,51.70
2018-05-04T19:27:39.526Z,51.70
2018-05-04T19:30:07.845Z,51.60
2018-05-04T19:32:36.907Z,51.30
2018-05-04T19:35:05.160Z,51.50
2018-05-04T19:37:33.408Z,51.50
2018-05-04T19:40:02.400Z,51.40
2018-05-04T19:42:30.653Z,51.60
2018-05-04T19:44:59.670Z,51.20
2018-05-04T19:47:28.751Z,51.10
2018-05-04T19:49:57.006Z,51.10
2018-05-04T19:52:25.270Z,51.30
2018-05-04T19:54:54.293Z,51.50
2018-05-04T19:57:22.576Z,51.50
2018-05-04T19:59:50.848Z,51.70
2018-05-04T20:02:19.412Z,51.40
2018-05-04T20:04:47.684Z,51.80
2018-05-04T20:07:15.977Z,52.80
2018-05-04T20:09:44.235Z,52.20
2018-05-04T20:12:12.564Z,51.90
2018-05-04T20:14:40.813Z,51.40
2018-05-04T20:17:09.060Z,51.80
2018-05-04T20:19:38.039Z,52.00
2018-05-04T20:22:06.293Z,52.00
2018-05-04T20:24:34.600Z,52.00
2018-05-04T20:27:02.853Z,52.40
2018-05-04T20:29:31.743Z,52.10
2018-05-04T20:31:59.977Z,52.20
2018-05-04T20:34:29.009Z,53.00
2018-05-04T20:36:57.253Z,53.00
2018-05-04T20:39:27.277Z,53.30
2018-05-04T20:41:56.294Z,53.90
2018-05-04T20:44:24.585Z,53.90
2018-05-04T20:46:52.835Z,54.20
2018-05-04T20:49:21.876Z,54.90
2018-05-04T20:51:50.109Z,54.90
2018-05-04T20:54:19.148Z,54.50
2018-05-04T20:56:47.423Z,54.50
2018-05-04T20:59:15.686Z,54.80
2018-05-04T21:01:44.682Z,55.60
2018-05-04T21:04:13.710Z,55.70
2018-05-04T21:06:42.986Z,55.60
2018-05-04T21:09:11.246Z,55.50
2018-05-04T21:11:39.524Z,55.60
2018-05-04T21:14:07.756Z,56.00
2018-05-04T21:16:36.031Z,56.70
2018-05-04T21:19:04.260Z,56.60
2018-05-04T21:21:32.540Z,57.50
2018-05-04T21:24:00.749Z,57.60
2018-05-04T21:26:29.766Z,58.40
2018-05-04T21:28:58.017Z,58.40
2018-05-04T21:31:26.286Z,57.90
2018-05-04T21:33:54.535Z,58.30
2018-05-04T21:36:22.889Z,58.30
2018-05-04T21:38:51.138Z,58.60
2018-05-04T21:41:19.402Z,59.30
2018-05-04T21:43:47.656Z,59.60
2018-05-04T21:46:15.943Z,59.80
2018-05-04T21:48:44.195Z,59.80
2018-05-04T21:51:12.456Z,60.50
2018-05-04T21:53:41.512Z,60.80
2018-05-04T21:56:09.752Z,60.80
2018-05-04T21:58:37.985Z,61.10
2018-05-04T22:01:07.655Z,61.50
2018-05-04T22:03:35.891Z,61.00
2018-05-04T22:06:04.176Z,60.60
2018-05-04T22:08:32.386Z,61.50
2018-05-04T22:11:00.641Z,61.10
2018-05-04T22:13:29.653Z,61.60
2018-05-04T22:15:58.673Z,61.50
2018-05-04T22:18:26.901Z,61.50
2018-05-04T22:20:55.178Z,61.70
2018-05-04T22:23:24.136Z,62.50
2018-05-04T22:25:52.413Z,62.20
2018-05-04T22:28:20.663Z,61.60
2018-05-04T22:30:49.681Z,62.80
2018-05-04T22:33:17.919Z,62.80
2018-05-04T22:35:46.173Z,63.50
2018-05-04T22:38:14.418Z,63.10
2018-05-04T22:40:43.467Z,63.80
2018-05-04T22:43:12.521Z,63.80
2018-05-04T22:45:40.804Z,64.20
2018-05-04T22:48:09.839Z,64.20
2018-05-04T22:50:38.084Z,64.10
2018-05-04T22:53:06.373Z,64.10
2018-05-04T22:55:34.656Z,64.10
2018-05-04T22:58:02.916Z,63.60
2018-05-04T23:00:32.676Z,63.50
2018-05-04T23:03:00.934Z,63.40
2018-05-04T23:05:29.192Z,62.60
2018-05-04T23:07:58.224Z,62.50
2018-05-04T23:13:07.081Z,63.20
2018-05-04T23:15:35.464Z,63.50
2018-05-04T23:18:03.728Z,63.20
2018-05-04T23:20:31.983Z,62.40
2018-05-04T23:23:01.015Z,63.90
2018-05-04T23:25:29.249Z,63.40
2018-05-04T23:27:59.095Z,63.20
2018-05-04T23:30:28.130Z,63.10
2018-05-04T23:32:56.404Z,63.40
2018-05-04T23:35:24.625Z,63.20
2018-05-04T23:37:52.885Z,63.20
2018-05-04T23:40:21.115Z,63.20
2018-05-04T23:42:49.388Z,63.60
2018-05-04T23:45:17.690Z,64.60
2018-05-04T23:47:46.717Z,64.20
2018-05-04T23:50:15.807Z,64.10
2018-05-04T23:52:44.075Z,64.00
2018-05-04T23:55:12.360Z,63.40
2018-05-04T23:57:40.632Z,63.40
